Time,TemperatureF,DewpointF,PressureIn,WindDirection,WindDirectionDegrees,WindSpeedMPH,WindSpeedGustMPH,Humidity,HourlyPrecipIn,Conditions,Clouds,dailyrainin,SoftwareType,DateUTC
2013-03-06 00:00:00,14.4,7.6,29.98,WNW,292,0.2,0.4,74,0.00,,SKC,0.00,VWS V14.01,2013-03-06 07:00:00,
2013-03-06 00:05:00,13.9,7.2,29.98,NW,315,0.0,0.7,74,0.00,,SKC,0.00,VWS V14.01,2013-03-06 07:05:00,
2013-03-06 00:10:00,13.7,7.0,29.98,NNW,338,0.0,0.7,74,0.00,,SKC,0.00,VWS V14.01,2013-03-06 07:10:00,
2013-03-06 00:15:00,13.5,6.8,29.98,WNW,292,0.0,0.7,74,0.00,,SKC,0.00,VWS V14.01,2013-03-06 07:15:00,
2013-03-06 00:20:00,13.3,6.6,29.97,NW,315,0.0,0.7,74,0.00,,SKC,0.00,VWS V14.01,2013-03-06 07:20:00,
2013-03-06 00:25:00,13.3,6.9,29.97,NW,315,0.0,0.7,75,0.00,,SKC,0.00,VWS V14.01,2013-03-06 07:25:00,
2013-03-06 00:31:00,13.1,6.7,29.97,NW,315,0.0,0.0,75,0.00,,SKC,0.00,VWS V14.01,2013-03-06 07:31:00,
2013-03-06 00:32:00,13.0,6.6,29.97,WNW,292,0.2,0.2,75,0.00,,SKC,0.00,VWS V14.01,2013-03-06 07:32:00,
2013-03-06 00:36:00,13.0,6.6,29.97,WNW,292,0.2,0.2,75,0.00,,SKC,0.00,VWS V14.01,2013-03-06 07:36:00,
2013-03-06 00:41:00,13.0,6.6,29.97,WNW,292,0.2,0.2,75,0.00,,SKC,0.00,VWS V14.01,2013-03-06 07:41:00,
2013-03-06 01:00:00,12.6,6.2,29.96,NW,315,0.0,0.2,75,0.00,,SKC,0.00,VWS V14.01,2013-03-06 08:00:00,
2013-03-06 01:03:00,12.6,6.5,29.96,NW,315,0.0,0.2,76,0.00,,SKC,0.00,VWS V14.01,2013-03-06 08:03:00,
2013-03-06 01:05:00,12.6,6.5,29.96,NW,315,0.0,0.2,76,0.00,,SKC,0.00,VWS V14.01,2013-03-06 08:05:00,
2013-03-06 01:10:00,12.6,6.5,29.96,NW,315,0.0,0.2,76,0.00,,SKC,0.00,VWS V14.01,2013-03-06 08:10:00,
2013-03-06 02:00:00,11.9,6.4,29.94,NW,315,0.9,0.9,78,0.00,,SKC,0.00,VWS V14.01,2013-03-06 09:00:00,
2013-03-06 02:05:00,11.9,6.7,29.93,NW,315,0.9,1.8,79,0.00,,SKC,0.00,VWS V14.01,2013-03-06 09:05:00,
2013-03-06 02:10:00,11.7,6.5,29.93,NW,315,0.0,1.8,79,0.00,,SKC,0.00,VWS V14.01,2013-03-06 09:10:00,
2013-03-06 02:15:00,11.5,6.3,29.93,WNW,292,0.0,1.8,79,0.00,,SKC,0.00,VWS V14.01,2013-03-06 09:15:00,
2013-03-06 02:20:00,11.5,6.3,29.93,NW,315,0.7,1.8,79,0.00,,SKC,0.00,VWS V14.01,2013-03-06 09:20:00,
2013-03-06 02:25:00,11.5,6.3,29.92,NNW,338,0.0,1.8,79,0.00,,SKC,0.00,VWS V14.01,2013-03-06 09:25:00,
2013-03-06 02:30:00,11.5,6.5,29.92,WNW,292,0.2,0.2,80,0.00,,SKC,0.00,VWS V14.01,2013-03-06 09:30:00,
2013-03-06 02:32:00,11.5,6.5,29.92,WNW,292,0.0,0.2,80,0.00,,SKC,0.00,VWS V14.01,2013-03-06 09:32:00,
2013-03-06 02:35:00,11.5,6.5,29.92,WNW,292,0.0,0.2,80,0.00,,SKC,0.00,VWS V14.01,2013-03-06 09:35:00,
2013-03-06 02:41:00,11.5,6.5,29.92,WNW,292,0.0,0.2,80,0.00,,SKC,0.00,VWS V14.01,2013-03-06 09:41:00,
2013-03-06 03:00:00,11.5,6.8,29.91,NW,315,0.0,0.2,81,0.00,,SKC,0.00,VWS V14.01,2013-03-06 10:00:00,
2013-03-06 03:05:00,11.5,6.5,29.91,WNW,292,0.0,0.2,80,0.00,,SKC,0.00,VWS V14.01,2013-03-06 10:05:00,
2013-03-06 03:10:00,11.3,6.3,29.90,WNW,292,0.4,0.4,80,0.00,,SKC,0.00,VWS V14.01,2013-03-06 10:10:00,
2013-03-06 03:15:00,11.5,6.8,29.90,WNW,292,0.0,0.4,81,0.00,,SKC,0.00,VWS V14.01,2013-03-06 10:15:00,
2013-03-06 03:20:00,11.5,6.8,29.90,WNW,292,0.0,0.7,81,0.00,,SKC,0.00,VWS V14.01,2013-03-06 10:20:00,
2013-03-06 03:25:00,11.7,7.0,29.90,WNW,292,0.0,0.7,81,0.00,,SKC,0.00,VWS V14.01,2013-03-06 10:25:00,
2013-03-06 03:31:00,11.9,7.2,29.90,WNW,292,0.0,0.0,81,0.00,,SKC,0.00,VWS V14.01,2013-03-06 10:31:00,
2013-03-06 03:32:00,11.9,7.2,29.90,WNW,292,0.0,0.0,81,0.00,,SKC,0.00,VWS V14.01,2013-03-06 10:32:00,
2013-03-06 03:36:00,11.9,7.2,29.90,WNW,292,0.0,0.0,81,0.00,,SKC,0.00,VWS V14.01,2013-03-06 10:36:00,
2013-03-06 03:41:00,11.9,7.2,29.90,WNW,292,0.0,0.0,81,0.00,,SKC,0.00,VWS V14.01,2013-03-06 10:41:00,
2013-03-06 04:00:00,12.8,8.1,29.89,East,90,0.4,0.4,81,0.00,,SKC,0.00,VWS V14.01,2013-03-06 11:00:00,
2013-03-06 04:05:00,12.6,7.9,29.89,East,90,0.0,0.9,81,0.00,,SKC,0.00,VWS V14.01,2013-03-06 11:05:00,
2013-03-06 04:10:00,12.6,7.9,29.89,NNW,338,0.0,0.9,81,0.00,,SKC,0.00,VWS V14.01,2013-03-06 11:10:00,
2013-03-06 04:15:00,12.6,7.9,29.90,NNW,338,0.0,0.9,81,0.00,,SKC,0.00,VWS V14.01,2013-03-06 11:15:00,
2013-03-06 04:20:00,13.0,8.3,29.90,NNW,338,0.0,0.9,81,0.00,,SKC,0.00,VWS V14.01,2013-03-06 11:20:00,
2013-03-06 04:25:00,13.0,8.3,29.90,NNW,338,0.0,0.9,81,0.00,,SKC,0.00,VWS V14.01,2013-03-06 11:25:00,
2013-03-06 04:31:00,13.0,8.3,29.90,WNW,292,0.2,0.2,81,0.00,,SKC,0.00,VWS V14.01,2013-03-06 11:31:00,
2013-03-06 04:36:00,13.1,8.4,29.90,WNW,292,0.4,0.4,81,0.00,,SKC,0.00,VWS V14.01,2013-03-06 11:36:00,
2013-03-06 04:41:00,13.1,8.4,29.90,WNW,292,0.4,0.4,81,0.00,,SKC,0.00,VWS V14.01,2013-03-06 11:41:00,
2013-03-06 05:00:00,14.4,9.9,29.89,NW,315,0.0,0.4,82,0.00,,SKC,0.00,VWS V14.01,2013-03-06 12:00:00,
2013-03-06 05:05:00,14.2,9.7,29.89,WNW,292,0.2,0.2,82,0.00,,SKC,0.00,VWS V14.01,2013-03-06 12:05:00,
2013-03-06 05:10:00,14.2,9.7,29.90,WNW,292,0.2,0.4,82,0.00,,SKC,0.00,VWS V14.01,2013-03-06 12:10:00,
2013-03-06 05:15:00,14.2,9.7,29.89,WNW,292,0.0,0.4,82,0.00,,SKC,0.00,VWS V14.01,2013-03-06 12:15:00,
2013-03-06 05:20:00,14.4,9.9,29.89,NW,315,0.0,0.4,82,0.00,,SKC,0.00,VWS V14.01,2013-03-06 12:20:00,
2013-03-06 05:26:00,14.8,10.3,29.89,ENE,68,0.0,0.4,82,0.00,,SKC,0.00,VWS V14.01,2013-03-06 12:26:00,
2013-03-06 05:31:00,14.9,10.4,29.90,WNW,292,0.2,0.2,82,0.00,,SKC,0.00,VWS V14.01,2013-03-06 12:31:00,
2013-03-06 05:32:00,15.1,10.6,29.90,NNW,338,0.2,0.2,82,0.00,,SKC,0.00,VWS V14.01,2013-03-06 12:32:00,
2013-03-06 05:36:00,15.1,10.6,29.90,NNW,338,0.2,0.2,82,0.00,,SKC,0.00,VWS V14.01,2013-03-06 12:36:00,
2013-03-06 05:41:00,15.1,10.6,29.90,NNW,338,0.2,0.2,82,0.00,,SKC,0.00,VWS V14.01,2013-03-06 12:41:00,
2013-03-06 06:00:00,15.7,10.6,29.89,NW,315,0.2,0.2,80,0.00,,SKC,0.00,VWS V14.01,2013-03-06 13:00:00,
2013-03-06 06:05:00,15.8,10.7,29.89,NW,315,0.2,0.4,80,0.00,,SKC,0.00,VWS V14.01,2013-03-06 13:05:00,
2013-03-06 06:10:00,15.8,10.5,29.89,NNW,338,0.0,0.4,79,0.00,,SKC,0.00,VWS V14.01,2013-03-06 13:10:00,
2013-03-06 06:15:00,16.0,10.6,29.89,NNW,338,0.0,0.4,79,0.00,,SKC,0.00,VWS V14.01,2013-03-06 13:15:00,
2013-03-06 06:20:00,15.8,10.5,29.89,NNW,338,0.9,1.1,79,0.00,,SKC,0.00,VWS V14.01,2013-03-06 13:20:00,
2013-03-06 06:25:00,15.8,10.5,29.89,WNW,292,0.4,1.1,79,0.00,,SKC,0.00,VWS V14.01,2013-03-06 13:25:00,
2013-03-06 06:31:00,15.8,10.5,29.89,WNW,292,0.9,0.9,79,0.00,,SKC,0.00,VWS V14.01,2013-03-06 13:31:00,
2013-03-06 06:32:00,15.8,10.5,29.89,NW,315,1.1,1.1,79,0.00,,SKC,0.00,VWS V14.01,2013-03-06 13:32:00,
2013-03-06 06:36:00,15.8,10.5,29.89,NW,315,1.1,1.1,79,0.00,,SKC,0.00,VWS V14.01,2013-03-06 13:36:00,
2013-03-06 06:41:00,15.8,10.5,29.89,NW,315,1.1,1.1,79,0.00,,SKC,0.00,VWS V14.01,2013-03-06 13:41:00,
2013-03-06 07:00:00,17.1,12.0,29.89,NNW,338,0.0,1.1,80,0.00,,SKC,0.00,VWS V14.01,2013-03-06 14:00:00,
2013-03-06 07:03:00,17.3,11.9,29.89,NNW,338,0.0,0.0,79,0.00,,SKC,0.00,VWS V14.01,2013-03-06 14:03:00,
2013-03-06 07:05:00,17.3,11.9,29.89,NNW,338,0.0,0.0,79,0.00,,SKC,0.00,VWS V14.01,2013-03-06 14:05:00,
2013-03-06 07:10:00,17.3,11.9,29.89,NNW,338,0.0,0.0,79,0.00,,SKC,0.00,VWS V14.01,2013-03-06 14:10:00,
2013-03-06 08:00:00,23.4,16.4,29.89,NE,45,0.0,0.0,74,0.00,,SKC,0.00,VWS V14.01,2013-03-06 15:00:00,
2013-03-06 08:05:00,24.7,16.0,29.88,East,90,0.0,0.2,69,0.00,,SKC,0.00,VWS V14.01,2013-03-06 15:05:00,
2013-03-06 08:10:00,25.7,17.0,29.88,East,90,0.9,0.9,69,0.00,,SKC,0.00,VWS V14.01,2013-03-06 15:10:00,
2013-03-06 08:15:00,27.0,17.5,29.88,ENE,68,0.4,0.9,67,0.00,,SKC,0.00,VWS V14.01,2013-03-06 15:15:00,
2013-03-06 08:20:00,28.4,18.9,29.88,ENE,68,0.0,0.9,67,0.00,,SKC,0.00,VWS V14.01,2013-03-06 15:20:00,
2013-03-06 08:25:00,29.9,19.9,29.88,NNE,22,0.4,0.9,66,0.00,,SKC,0.00,VWS V14.01,2013-03-06 15:25:00,
2013-03-06 08:31:00,31.5,20.7,29.87,NE,45,0.2,0.2,64,0.00,,SKC,0.00,VWS V14.01,2013-03-06 15:31:00,
2013-03-06 08:33:00,32.8,21.2,29.87,ENE,68,1.1,1.1,62,0.00,,SKC,0.00,VWS V14.01,2013-03-06 15:33:00,
2013-03-06 08:36:00,32.8,21.2,29.87,ENE,68,1.1,1.1,62,0.00,,SKC,0.00,VWS V14.01,2013-03-06 15:36:00,
2013-03-06 08:41:00,32.8,21.2,29.87,ENE,68,1.1,1.1,62,0.00,,SKC,0.00,VWS V14.01,2013-03-06 15:41:00,
2013-03-06 09:00:00,38.7,20.7,29.86,East,90,0.4,1.1,48,0.00,,SKC,0.00,VWS V14.01,2013-03-06 16:00:00,
2013-03-06 09:05:00,40.0,22.4,29.86,NE,45,0.7,1.8,49,0.00,,SKC,0.00,VWS V14.01,2013-03-06 16:05:00,
2013-03-06 09:10:00,41.4,22.2,29.86,NE,45,1.8,1.8,46,0.00,,SKC,0.00,VWS V14.01,2013-03-06 16:10:00,
2013-03-06 09:15:00,42.1,22.3,29.86,NNE,22,1.8,2.5,45,0.00,,SKC,0.00,VWS V14.01,2013-03-06 16:15:00,
2013-03-06 09:20:00,43.4,22.4,29.85,NNE,22,2.0,2.5,43,0.00,,SKC,0.00,VWS V14.01,2013-03-06 16:20:00,
2013-03-06 09:25:00,44.6,22.4,29.85,NE,45,1.8,2.5,41,0.00,,SKC,0.00,VWS V14.01,2013-03-06 16:25:00,
2013-03-06 09:30:00,45.0,21.5,29.85,East,90,2.7,2.7,39,0.00,,SKC,0.00,VWS V14.01,2013-03-06 16:30:00,
2013-03-06 09:32:00,44.6,20.0,29.85,NE,45,2.0,4.0,37,0.00,,SKC,0.00,VWS V14.01,2013-03-06 16:32:00,
2013-03-06 09:36:00,44.6,20.0,29.85,NE,45,2.0,4.0,37,0.00,,SKC,0.00,VWS V14.01,2013-03-06 16:36:00,
2013-03-06 09:41:00,44.6,20.0,29.85,NE,45,2.0,4.0,37,0.00,,SKC,0.00,VWS V14.01,2013-03-06 16:41:00,
2013-03-06 10:00:00,48.2,22.5,29.85,NE,45,2.7,2.7,36,0.00,,SKC,0.00,VWS V14.01,2013-03-06 17:00:00,
2013-03-06 10:05:00,48.6,21.5,29.84,NE,45,4.7,4.7,34,0.00,,SKC,0.00,VWS V14.01,2013-03-06 17:05:00,
2013-03-06 10:10:00,48.2,21.2,29.84,NNE,22,3.8,4.7,34,0.00,,SKC,0.00,VWS V14.01,2013-03-06 17:10:00,
2013-03-06 10:15:00,48.4,20.6,29.84,NE,45,2.0,4.9,33,0.00,,SKC,0.00,VWS V14.01,2013-03-06 17:15:00,
2013-03-06 10:20:00,47.5,19.9,29.84,NE,45,2.5,4.9,33,0.00,,SKC,0.00,VWS V14.01,2013-03-06 17:20:00,
2013-03-06 10:25:00,47.2,19.6,29.84,NNE,22,4.0,4.9,33,0.00,,SKC,0.00,VWS V14.01,2013-03-06 17:25:00,
2013-03-06 10:31:00,46.6,19.0,29.84,NE,45,3.4,3.4,33,0.00,,SKC,0.00,VWS V14.01,2013-03-06 17:31:00,
2013-03-06 10:32:00,46.8,19.2,29.84,ENE,68,0.7,3.4,33,0.00,,SKC,0.00,VWS V14.01,2013-03-06 17:32:00,
2013-03-06 10:36:00,46.8,19.2,29.84,ENE,68,0.7,3.4,33,0.00,,SKC,0.00,VWS V14.01,2013-03-06 17:36:00,
2013-03-06 10:41:00,46.8,19.2,29.84,ENE,68,0.7,3.4,33,0.00,,SKC,0.00,VWS V14.01,2013-03-06 17:41:00,
2013-03-06 11:00:00,44.1,18.9,29.83,ENE,68,6.0,6.0,36,0.00,,SKC,0.00,VWS V14.01,2013-03-06 18:00:00,
2013-03-06 11:05:00,43.9,18.7,29.83,ENE,68,6.3,6.3,36,0.00,,SKC,0.00,VWS V14.01,2013-03-06 18:05:00,
2013-03-06 11:10:00,43.6,18.4,29.83,NE,45,6.5,6.5,36,0.00,,SKC,0.00,VWS V14.01,2013-03-06 18:10:00,
2013-03-06 11:15:00,42.3,18.5,29.83,NNE,22,3.8,6.5,38,0.00,,SKC,0.00,VWS V14.01,2013-03-06 18:15:00,
2013-03-06 11:20:00,40.7,18.3,29.83,NE,45,4.3,6.5,40,0.00,,SKC,0.00,VWS V14.01,2013-03-06 18:20:00,
2013-03-06 11:25:00,40.5,18.7,29.83,NNE,22,1.3,6.5,41,0.00,,SKC,0.00,VWS V14.01,2013-03-06 18:25:00,
2013-03-06 11:30:00,40.3,19.0,29.82,NE,45,2.0,2.0,42,0.00,,SKC,0.00,VWS V14.01,2013-03-06 18:30:00,
2013-03-06 11:32:00,40.3,18.5,29.82,ENE,68,2.5,4.3,41,0.00,,SKC,0.00,VWS V14.01,2013-03-06 18:32:00,
2013-03-06 11:36:00,40.3,18.5,29.82,ENE,68,2.5,4.3,41,0.00,,SKC,0.00,VWS V14.01,2013-03-06 18:36:00,
2013-03-06 11:41:00,40.3,18.5,29.82,ENE,68,2.5,4.3,41,0.00,,SKC,0.00,VWS V14.01,2013-03-06 18:41:00,
2013-03-06 12:00:00,40.0,19.3,29.82,NE,45,6.3,6.3,43,0.00,,SKC,0.00,VWS V14.01,2013-03-06 19:00:00,
2013-03-06 12:05:00,39.2,19.1,29.82,East,90,6.7,8.1,44,0.00,,SKC,0.00,VWS V14.01,2013-03-06 19:05:00,
2013-03-06 12:10:00,37.6,18.2,29.82,East,90,4.3,8.1,45,0.00,,SKC,0.00,VWS V14.01,2013-03-06 19:10:00,
2013-03-06 12:15:00,37.8,18.9,29.82,East,90,4.5,8.1,46,0.00,,SKC,0.00,VWS V14.01,2013-03-06 19:15:00,
2013-03-06 12:20:00,37.8,18.4,29.81,NE,45,5.4,8.7,45,0.00,,SKC,0.00,VWS V14.01,2013-03-06 19:20:00,
2013-03-06 12:26:00,38.3,18.8,29.81,ENE,68,4.3,8.7,45,0.00,,SKC,0.00,VWS V14.01,2013-03-06 19:26:00,
2013-03-06 12:31:00,38.3,19.9,29.81,ENE,68,6.7,6.7,47,0.00,,SKC,0.00,VWS V14.01,2013-03-06 19:31:00,
2013-03-06 12:32:00,38.3,18.8,29.81,East,90,4.7,6.7,45,0.00,,SKC,0.00,VWS V14.01,2013-03-06 19:32:00,
2013-03-06 12:36:00,38.3,18.8,29.81,East,90,4.7,6.7,45,0.00,,SKC,0.00,VWS V14.01,2013-03-06 19:36:00,
2013-03-06 12:41:00,38.3,18.8,29.81,East,90,4.7,6.7,45,0.00,,SKC,0.00,VWS V14.01,2013-03-06 19:41:00,
2013-03-06 13:00:00,39.1,19.6,29.80,East,90,5.8,5.8,45,0.00,,SKC,0.00,VWS V14.01,2013-03-06 20:00:00,
2013-03-06 13:05:00,39.2,19.7,29.80,East,90,3.4,8.5,45,0.00,,SKC,0.00,VWS V14.01,2013-03-06 20:05:00,
2013-03-06 13:10:00,39.4,19.8,29.79,East,90,6.9,8.5,45,0.00,,SKC,0.00,VWS V14.01,2013-03-06 20:10:00,
2013-03-06 13:15:00,39.4,19.3,29.79,East,90,6.9,8.5,44,0.00,,SKC,0.00,VWS V14.01,2013-03-06 20:15:00,
2013-03-06 13:20:00,39.2,19.7,29.79,NE,45,7.6,10.1,45,0.00,,SKC,0.00,VWS V14.01,2013-03-06 20:20:00,
2013-03-06 13:26:00,39.8,20.2,29.78,NE,45,6.5,10.1,45,0.00,,SKC,0.00,VWS V14.01,2013-03-06 20:26:00,
2013-03-06 13:31:00,40.3,20.7,29.78,ENE,68,6.3,6.3,45,0.00,,SKC,0.00,VWS V14.01,2013-03-06 20:31:00,
2013-03-06 13:32:00,40.3,20.1,29.78,ENE,68,6.9,6.9,44,0.00,,SKC,0.00,VWS V14.01,2013-03-06 20:32:00,
2013-03-06 13:36:00,40.3,20.1,29.78,ENE,68,6.9,6.9,44,0.00,,SKC,0.00,VWS V14.01,2013-03-06 20:36:00,
2013-03-06 13:41:00,40.3,20.1,29.78,ENE,68,6.9,6.9,44,0.00,,SKC,0.00,VWS V14.01,2013-03-06 20:41:00,
2013-03-06 14:00:00,41.2,21.5,29.77,NE,45,3.1,6.9,45,0.00,,SKC,0.00,VWS V14.01,2013-03-06 21:00:00,
2013-03-06 14:05:00,41.6,20.8,29.77,NNE,22,6.3,7.6,43,0.00,,SKC,0.00,VWS V14.01,2013-03-06 21:05:00,
2013-03-06 14:10:00,41.9,21.0,29.76,East,90,5.4,7.6,43,0.00,,SKC,0.00,VWS V14.01,2013-03-06 21:10:00,
2013-03-06 14:15:00,42.1,20.7,29.76,East,90,8.5,8.9,42,0.00,,SKC,0.00,VWS V14.01,2013-03-06 21:15:00,
2013-03-06 14:20:00,42.1,21.2,29.75,NE,45,7.8,8.9,43,0.00,,SKC,0.00,VWS V14.01,2013-03-06 21:20:00,
2013-03-06 14:26:00,42.1,21.2,29.75,ENE,68,8.1,10.7,43,0.00,,SKC,0.00,VWS V14.01,2013-03-06 21:26:00,
2013-03-06 14:31:00,42.5,21.6,29.75,ENE,68,3.4,3.4,43,0.00,,SKC,0.00,VWS V14.01,2013-03-06 21:31:00,
2013-03-06 14:32:00,42.5,21.0,29.75,ENE,68,4.9,4.9,42,0.00,,SKC,0.00,VWS V14.01,2013-03-06 21:32:00,
2013-03-06 14:36:00,42.5,21.0,29.75,ENE,68,4.9,4.9,42,0.00,,SKC,0.00,VWS V14.01,2013-03-06 21:36:00,
2013-03-06 14:41:00,42.5,21.0,29.75,ENE,68,4.9,4.9,42,0.00,,SKC,0.00,VWS V14.01,2013-03-06 21:41:00,
2013-03-06 15:00:00,43.0,20.9,29.75,East,90,4.7,4.9,41,0.00,,SKC,0.00,VWS V14.01,2013-03-06 22:00:00,
2013-03-06 15:05:00,43.2,20.5,29.75,East,90,8.7,8.7,40,0.00,,SKC,0.00,VWS V14.01,2013-03-06 22:05:00,
2013-03-06 15:10:00,42.7,20.7,29.74,East,90,9.2,9.6,41,0.00,,SKC,0.00,VWS V14.01,2013-03-06 22:10:00,
2013-03-06 15:15:00,43.0,20.4,29.74,NE,45,5.4,9.6,40,0.00,,SKC,0.00,VWS V14.01,2013-03-06 22:15:00,
2013-03-06 15:20:00,43.2,20.5,29.74,East,90,4.9,9.6,40,0.00,,SKC,0.00,VWS V14.01,2013-03-06 22:20:00,
2013-03-06 15:25:00,42.8,20.2,29.74,East,90,4.9,9.6,40,0.00,,SKC,0.00,VWS V14.01,2013-03-06 22:25:00,
2013-03-06 15:30:00,42.7,20.1,29.74,ENE,68,4.0,4.0,40,0.00,,SKC,0.00,VWS V14.01,2013-03-06 22:30:00,
2013-03-06 15:32:00,42.5,19.9,29.74,East,90,5.4,6.9,40,0.00,,SKC,0.00,VWS V14.01,2013-03-06 22:32:00,
2013-03-06 15:36:00,42.5,19.9,29.74,East,90,5.4,6.9,40,0.00,,SKC,0.00,VWS V14.01,2013-03-06 22:36:00,
2013-03-06 15:41:00,42.5,19.9,29.74,East,90,5.4,6.9,40,0.00,,SKC,0.00,VWS V14.01,2013-03-06 22:41:00,
2013-03-06 16:00:00,42.3,19.7,29.74,East,90,6.5,6.9,40,0.00,,SKC,0.00,VWS V14.01,2013-03-06 23:00:00,
2013-03-06 16:05:00,42.5,19.3,29.74,East,90,2.5,6.5,39,0.00,,SKC,0.00,VWS V14.01,2013-03-06 23:05:00,
2013-03-06 16:10:00,42.3,19.7,29.74,East,90,2.9,6.5,40,0.00,,SKC,0.00,VWS V14.01,2013-03-06 23:10:00,
2013-03-06 16:15:00,42.3,19.7,29.73,East,90,3.1,8.3,40,0.00,,SKC,0.00,VWS V14.01,2013-03-06 23:15:00,
2013-03-06 16:20:00,42.1,19.5,29.73,East,90,4.3,8.3,40,0.00,,SKC,0.00,VWS V14.01,2013-03-06 23:20:00,
2013-03-06 16:25:00,42.1,19.5,29.73,East,90,4.9,8.3,40,0.00,,SKC,0.00,VWS V14.01,2013-03-06 23:25:00,
2013-03-06 16:31:00,42.1,19.5,29.72,East,90,1.1,1.1,40,0.00,,SKC,0.00,VWS V14.01,2013-03-06 23:31:00,
2013-03-06 16:32:00,42.1,19.5,29.72,East,90,2.2,2.2,40,0.00,,SKC,0.00,VWS V14.01,2013-03-06 23:32:00,
2013-03-06 16:36:00,42.1,19.5,29.72,East,90,2.2,2.2,40,0.00,,SKC,0.00,VWS V14.01,2013-03-06 23:36:00,
2013-03-06 16:41:00,42.1,19.5,29.72,East,90,2.2,2.2,40,0.00,,SKC,0.00,VWS V14.01,2013-03-06 23:41:00,
2013-03-06 17:00:00,42.1,19.5,29.72,North,0,2.9,2.9,40,0.00,,SKC,0.00,VWS V14.01,2013-03-07 00:00:00,
2013-03-06 17:05:00,42.5,19.9,29.72,East,90,2.0,6.9,40,0.00,,SKC,0.00,VWS V14.01,2013-03-07 00:05:00,
2013-03-06 17:10:00,42.1,19.5,29.72,NE,45,4.7,6.9,40,0.00,,SKC,0.00,VWS V14.01,2013-03-07 00:10:00,
2013-03-06 17:15:00,42.1,19.5,29.72,East,90,2.5,6.9,40,0.00,,SKC,0.00,VWS V14.01,2013-03-07 00:15:00,
2013-03-06 17:20:00,41.8,19.8,29.72,ENE,68,2.0,6.9,41,0.00,,SKC,0.00,VWS V14.01,2013-03-07 00:20:00,
2013-03-06 17:25:00,41.8,19.3,29.72,East,90,1.6,6.9,40,0.00,,SKC,0.00,VWS V14.01,2013-03-07 00:25:00,
2013-03-06 17:30:00,41.4,19.5,29.72,ENE,68,4.0,4.0,41,0.00,,SKC,0.00,VWS V14.01,2013-03-07 00:30:00,
2013-03-06 17:32:00,41.2,19.9,29.72,East,90,1.8,4.0,42,0.00,,SKC,0.00,VWS V14.01,2013-03-07 00:32:00,
2013-03-06 17:36:00,41.2,19.9,29.72,East,90,1.8,4.0,42,0.00,,SKC,0.00,VWS V14.01,2013-03-07 00:36:00,
2013-03-06 17:41:00,41.2,19.9,29.72,East,90,1.8,4.0,42,0.00,,SKC,0.00,VWS V14.01,2013-03-07 00:41:00,
2013-03-06 18:00:00,40.0,19.3,29.72,NW,315,0.0,4.0,43,0.00,,SKC,0.00,VWS V14.01,2013-03-07 01:00:00,
2013-03-06 18:05:00,39.2,19.7,29.72,North,0,0.0,1.1,45,0.00,,SKC,0.00,VWS V14.01,2013-03-07 01:05:00,
2013-03-06 18:10:00,37.8,18.9,29.73,NW,315,0.2,1.1,46,0.00,,SKC,0.00,VWS V14.01,2013-03-07 01:10:00,
2013-03-06 18:15:00,36.7,18.9,29.72,NNW,338,0.4,1.3,48,0.00,,SKC,0.00,VWS V14.01,2013-03-07 01:15:00,
2013-03-06 18:20:00,35.8,19.0,29.73,NNW,338,1.1,1.3,50,0.00,,SKC,0.00,VWS V14.01,2013-03-07 01:20:00,
2013-03-06 18:25:00,35.1,18.8,29.73,NW,315,0.7,1.3,51,0.00,,SKC,0.00,VWS V14.01,2013-03-07 01:25:00,
2013-03-06 18:30:00,34.7,18.9,29.73,NNW,338,0.7,0.7,52,0.00,,SKC,0.00,VWS V14.01,2013-03-07 01:30:00,
2013-03-06 18:32:00,34.6,19.2,29.73,NNW,338,0.0,0.9,53,0.00,,SKC,0.00,VWS V14.01,2013-03-07 01:32:00,
2013-03-06 18:36:00,34.6,19.2,29.73,NNW,338,0.0,0.9,53,0.00,,SKC,0.00,VWS V14.01,2013-03-07 01:36:00,
2013-03-06 18:41:00,34.6,19.2,29.73,NNW,338,0.0,0.9,53,0.00,,SKC,0.00,VWS V14.01,2013-03-07 01:41:00,
2013-03-06 19:00:00,32.6,18.7,29.72,WNW,292,0.7,0.9,56,0.00,,SKC,0.00,VWS V14.01,2013-03-07 02:00:00,
2013-03-06 19:03:00,32.2,18.7,29.72,NW,315,0.7,1.1,57,0.00,,SKC,0.00,VWS V14.01,2013-03-07 02:03:00,
2013-03-06 19:05:00,32.2,18.7,29.72,NW,315,0.7,1.1,57,0.00,,SKC,0.00,VWS V14.01,2013-03-07 02:05:00,
2013-03-06 19:10:00,32.2,18.7,29.72,NW,315,0.7,1.1,57,0.00,,SKC,0.00,VWS V14.01,2013-03-07 02:10:00,
2013-03-06 20:00:00,29.7,18.7,29.71,NNW,338,1.6,1.6,63,0.00,,SKC,0.00,VWS V14.01,2013-03-07 03:00:00,
2013-03-06 20:01:00,29.5,18.5,29.71,NW,315,0.4,1.6,63,0.00,,SKC,0.00,VWS V14.01,2013-03-07 03:01:00,
2013-03-06 20:05:00,29.5,18.5,29.71,NW,315,0.4,1.6,63,0.00,,SKC,0.00,VWS V14.01,2013-03-07 03:05:00,
2013-03-06 20:10:00,29.5,18.5,29.71,NW,315,0.4,1.6,63,0.00,,SKC,0.00,VWS V14.01,2013-03-07 03:10:00,
2013-03-06 21:00:00,28.4,18.9,29.70,NW,315,0.2,1.6,67,0.00,,SKC,0.00,VWS V14.01,2013-03-07 04:00:00,
2013-03-06 21:04:00,28.1,18.9,29.70,NNW,338,0.0,0.7,68,0.00,,SKC,0.00,VWS V14.01,2013-03-07 04:04:00,
2013-03-06 21:05:00,28.1,18.9,29.70,NNW,338,0.0,0.7,68,0.00,,SKC,0.00,VWS V14.01,2013-03-07 04:05:00,
2013-03-06 21:10:00,28.1,18.9,29.70,NNW,338,0.0,0.7,68,0.00,,SKC,0.00,VWS V14.01,2013-03-07 04:10:00,
2013-03-06 22:00:00,29.5,21.3,29.69,NNW,338,0.4,0.4,71,0.00,,SKC,0.00,VWS V14.01,2013-03-07 05:00:00,
2013-03-06 22:01:00,29.5,21.3,29.69,NNW,338,0.4,0.4,71,0.00,,SKC,0.00,VWS V14.01,2013-03-07 05:01:00,
2013-03-06 22:06:00,29.5,21.3,29.69,NW,315,1.1,1.1,71,0.00,,SKC,0.00,VWS V14.01,2013-03-07 05:06:00,
2013-03-06 22:11:00,29.9,21.7,29.69,WNW,292,0.9,1.1,71,0.00,,SKC,0.00,VWS V14.01,2013-03-07 05:11:00,
2013-03-06 22:16:00,29.7,21.1,29.69,NW,315,0.4,1.3,70,0.00,,SKC,0.00,VWS V14.01,2013-03-07 05:16:00,
2013-03-06 22:21:00,29.7,21.5,29.69,WNW,292,0.9,1.3,71,0.00,,SKC,0.00,VWS V14.01,2013-03-07 05:21:00,
2013-03-06 22:26:00,29.5,21.3,29.69,WNW,292,0.9,1.3,71,0.00,,SKC,0.00,VWS V14.01,2013-03-07 05:26:00,
2013-03-06 22:31:00,29.2,21.0,29.69,NW,315,0.4,0.9,71,0.00,,SKC,0.00,VWS V14.01,2013-03-07 05:31:00,
2013-03-06 22:32:00,29.0,20.8,29.69,NW,315,1.1,1.1,71,0.00,,SKC,0.00,VWS V14.01,2013-03-07 05:32:00,
2013-03-06 22:37:00,29.0,20.8,29.69,NW,315,1.1,1.1,71,0.00,,SKC,0.00,VWS V14.01,2013-03-07 05:37:00,
2013-03-06 22:42:00,29.0,20.8,29.69,NW,315,1.1,1.1,71,0.00,,SKC,0.00,VWS V14.01,2013-03-07 05:42:00,
2013-03-06 23:00:00,29.2,21.0,29.69,WNW,292,0.0,1.1,71,0.00,,SKC,0.00,VWS V14.01,2013-03-07 06:00:00,
2013-03-06 23:05:00,28.8,20.9,29.69,WNW,292,0.4,0.4,72,0.00,,SKC,0.00,VWS V14.01,2013-03-07 06:05:00,
2013-03-06 23:10:00,28.6,21.1,29.69,WNW,292,0.2,0.4,73,0.00,,SKC,0.00,VWS V14.01,2013-03-07 06:10:00,
2013-03-06 23:15:00,28.4,20.9,29.69,NNW,338,0.2,0.4,73,0.00,,SKC,0.00,VWS V14.01,2013-03-07 06:15:00,
2013-03-06 23:20:00,28.4,20.9,29.69,NW,315,0.2,0.4,73,0.00,,SKC,0.00,VWS V14.01,2013-03-07 06:20:00,
2013-03-06 23:25:00,28.4,20.5,29.68,NW,315,0.0,0.4,72,0.00,,SKC,0.00,VWS V14.01,2013-03-07 06:25:00,
2013-03-06 23:31:00,28.4,20.9,29.68,NW,315,0.0,0.0,73,0.00,,SKC,0.00,VWS V14.01,2013-03-07 06:31:00,
2013-03-06 23:32:00,28.3,20.8,29.68,NW,315,0.2,0.2,73,0.00,,SKC,0.00,VWS V14.01,2013-03-07 06:32:00,
2013-03-06 23:36:00,28.3,20.8,29.68,NW,315,0.2,0.2,73,0.00,,SKC,0.00,VWS V14.01,2013-03-07 06:36:00,
2013-03-06 23:41:00,28.3,20.8,29.68,NW,315,0.2,0.2,73,0.00,,SKC,0.00,VWS V14.01,2013-03-07 06:41:00,